sensor_id;sensor_type;location;lat;lon;timestamp;pressure;altitude;pressure_sealevel;temperature;humidity
72959;BME280;60008;50.826;6.896;2023-10-09T00:02:27;101511.28;;;15.35;100.00
72959;BME280;60008;50.826;6.896;2023-10-09T00:05:14;101514.97;;;15.26;100.00
72959;BME280;60008;50.826;6.896;2023-10-09T00:08:08;101505.78;;;15.29;100.00
72959;BME280;60008;50.826;6.896;2023-10-09T00:10:54;101513.28;;;15.25;100.00
72959;BME280;60008;50.826;6.896;2023-10-09T00:13:40;101508.25;;;15.30;100.00
72959;BME280;60008;50.826;6.896;2023-10-09T00:16:35;101510.16;;;15.22;100.00
72959;BME280;60008;50.826;6.896;2023-10-09T00:19:25;101500.47;;;15.13;100.00
72959;BME280;60008;50.826;6.896;2023-10-09T00:22:16;101506.69;;;15.05;100.00
72959;BME280;60008;50.826;6.896;2023-10-09T00:25:22;101514.00;;;15.11;100.00
72959;BME280;60008;50.826;6.896;2023-10-09T00:28:13;101509.00;;;15.08;100.00
72959;BME280;60008;50.826;6.896;2023-10-09T00:31:06;101511.03;;;14.98;100.00
72959;BME280;60008;50.826;6.896;2023-10-09T00:33:52;101507.19;;;15.01;100.00
72959;BME280;60008;50.826;6.896;2023-10-09T00:36:39;101500.69;;;14.95;100.00
72959;BME280;60008;50.826;6.896;2023-10-09T00:39:35;101500.53;;;14.97;100.00
72959;BME280;60008;50.826;6.896;2023-10-09T00:42:21;101504.50;;;15.01;100.00
72959;BME280;60008;50.826;6.896;2023-10-09T00:45:21;101492.53;;;14.97;100.00
72959;BME280;60008;50.826;6.896;2023-10-09T00:48:11;101493.81;;;15.01;100.00
72959;BME280;60008;50.826;6.896;2023-10-09T00:51:00;101487.50;;;15.02;100.00
72959;BME280;60008;50.826;6.896;2023-10-09T00:53:48;101470.81;;;15.00;100.00
72959;BME280;60008;50.826;6.896;2023-10-09T00:56:36;101472.19;;;14.87;100.00
72959;BME280;60008;50.826;6.896;2023-10-09T00:59:27;101471.34;;;14.87;100.00
72959;BME280;60008;50.826;6.896;2023-10-09T01:02:12;101478.22;;;14.65;100.00
72959;BME280;60008;50.826;6.896;2023-10-09T01:05:04;101471.56;;;14.69;100.00
72959;BME280;60008;50.826;6.896;2023-10-09T01:07:56;101473.03;;;14.80;100.00
72959;BME280;60008;50.826;6.896;2023-10-09T01:10:47;101466.81;;;14.96;100.00
72959;BME280;60008;50.826;6.896;2023-10-09T01:13:41;101469.19;;;14.82;100.00
72959;BME280;60008;50.826;6.896;2023-10-09T01:16:38;101465.53;;;14.83;100.00
72959;BME280;60008;50.826;6.896;2023-10-09T01:19:26;101451.34;;;14.83;100.00
72959;BME280;60008;50.826;6.896;2023-10-09T01:22:16;101454.53;;;14.70;100.00
72959;BME280;60008;50.826;6.896;2023-10-09T01:25:02;101454.56;;;14.54;100.00
72959;BME280;60008;50.826;6.896;2023-10-09T01:27:51;101459.88;;;14.62;100.00
72959;BME280;60008;50.826;6.896;2023-10-09T01:30:37;101453.72;;;14.62;100.00
72959;BME280;60008;50.826;6.896;2023-10-09T01:33:26;101460.56;;;14.64;100.00
72959;BME280;60008;50.826;6.896;2023-10-09T01:36:13;101460.25;;;14.59;100.00
72959;BME280;60008;50.826;6.896;2023-10-09T01:39:00;101456.88;;;14.65;100.00
72959;BME280;60008;50.826;6.896;2023-10-09T01:41:55;101451.22;;;14.60;100.00
72959;BME280;60008;50.826;6.896;2023-10-09T01:44:43;101441.72;;;14.50;100.00
72959;BME280;60008;50.826;6.896;2023-10-09T01:47:28;101432.03;;;14.49;100.00
72959;BME280;60008;50.826;6.896;2023-10-09T01:50:17;101434.91;;;14.47;100.00
72959;BME280;60008;50.826;6.896;2023-10-09T01:53:10;101430.22;;;14.41;100.00
72959;BME280;60008;50.826;6.896;2023-10-09T01:56:10;101427.03;;;14.21;100.00
72959;BME280;60008;50.826;6.896;2023-10-09T01:58:59;101425.91;;;14.40;100.00
72959;BME280;60008;50.826;6.896;2023-10-09T02:01:50;101426.03;;;14.30;100.00
72959;BME280;60008;50.826;6.896;2023-10-09T02:04:39;101428.22;;;14.35;100.00
72959;BME280;60008;50.826;6.896;2023-10-09T02:07:26;101440.25;;;14.39;100.00
72959;BME280;60008;50.826;6.896;2023-10-09T02:10:21;101432.41;;;14.46;100.00
72959;BME280;60008;50.826;6.896;2023-10-09T02:13:11;101447.06;;;14.50;100.00
72959;BME280;60008;50.826;6.896;2023-10-09T02:15:56;101437.88;;;14.52;100.00
72959;BME280;60008;50.826;6.896;2023-10-09T02:19:00;101445.34;;;14.65;100.00
72959;BME280;60008;50.826;6.896;2023-10-09T02:21:51;101435.34;;;14.75;100.00
72959;BME280;60008;50.826;6.896;2023-10-09T02:24:42;101428.19;;;14.75;100.00
72959;BME280;60008;50.826;6.896;2023-10-09T02:27:33;101426.19;;;14.69;100.00
72959;BME280;60008;50.826;6.896;2023-10-09T02:30:38;101430.69;;;14.69;100.00
72959;BME280;60008;50.826;6.896;2023-10-09T02:33:27;101442.53;;;14.74;100.00
72959;BME280;60008;50.826;6.896;2023-10-09T02:36:13;101432.69;;;14.75;100.00
72959;BME280;60008;50.826;6.896;2023-10-09T02:38:59;101436.22;;;14.67;100.00
72959;BME280;60008;50.826;6.896;2023-10-09T02:41:44;101451.19;;;14.68;100.00
72959;BME280;60008;50.826;6.896;2023-10-09T02:44:35;101445.03;;;14.68;100.00
72959;BME280;60008;50.826;6.896;2023-10-09T02:47:26;101437.03;;;14.68;100.00
72959;BME280;60008;50.826;6.896;2023-10-09T02:50:16;101427.03;;;14.70;100.00
72959;BME280;60008;50.826;6.896;2023-10-09T02:53:05;101417.00;;;14.72;100.00
72959;BME280;60008;50.826;6.896;2023-10-09T02:55:55;101431.38;;;14.63;100.00
72959;BME280;60008;50.826;6.896;2023-10-09T02:58:57;101417.56;;;14.59;100.00
72959;BME280;60008;50.826;6.896;2023-10-09T03:01:51;101432.84;;;14.65;100.00
72959;BME280;60008;50.826;6.896;2023-10-09T03:04:39;101428.38;;;14.58;100.00
72959;BME280;60008;50.826;6.896;2023-10-09T03:07:27;101431.69;;;14.60;100.00
72959;BME280;60008;50.826;6.896;2023-10-09T03:10:12;101414.41;;;14.48;100.00
72959;BME280;60008;50.826;6.896;2023-10-09T03:12:58;101425.53;;;14.51;100.00
72959;BME280;60008;50.826;6.896;2023-10-09T03:15:46;101427.72;;;14.48;100.00
72959;BME280;60008;50.826;6.896;2023-10-09T03:18:33;101424.22;;;14.47;100.00
72959;BME280;60008;50.826;6.896;2023-10-09T03:21:19;101422.19;;;14.57;100.00
72959;BME280;60008;50.826;6.896;2023-10-09T03:24:04;101411.53;;;14.57;100.00
72959;BME280;60008;50.826;6.896;2023-10-09T03:26:50;101423.34;;;14.63;100.00
72959;BME280;60008;50.826;6.896;2023-10-09T03:29:35;101422.38;;;14.56;100.00
72959;BME280;60008;50.826;6.896;2023-10-09T03:32:20;101419.50;;;14.65;100.00
72959;BME280;60008;50.826;6.896;2023-10-09T03:35:05;101416.38;;;14.62;100.00
72959;BME280;60008;50.826;6.896;2023-10-09T03:37:56;101418.69;;;14.65;100.00
72959;BME280;60008;50.826;6.896;2023-10-09T03:40:44;101418.84;;;14.71;100.00
72959;BME280;60008;50.826;6.896;2023-10-09T03:43:34;101408.16;;;14.71;100.00
72959;BME280;60008;50.826;6.896;2023-10-09T03:46:24;101414.19;;;14.65;100.00
72959;BME280;60008;50.826;6.896;2023-10-09T03:49:17;101418.22;;;14.29;100.00
72959;BME280;60008;50.826;6.896;2023-10-09T03:52:08;101419.41;;;14.43;100.00
72959;BME280;60008;50.826;6.896;2023-10-09T03:54:54;101414.88;;;14.59;100.00
72959;BME280;60008;50.826;6.896;2023-10-09T03:57:40;101414.38;;;14.64;100.00
72959;BME280;60008;50.826;6.896;2023-10-09T04:00:30;101415.84;;;14.74;100.00
72959;BME280;60008;50.826;6.896;2023-10-09T04:03:16;101415.34;;;14.71;100.00
72959;BME280;60008;50.826;6.896;2023-10-09T04:06:02;101422.16;;;14.73;100.00
72959;BME280;60008;50.826;6.896;2023-10-09T04:08:49;101415.53;;;14.69;100.00
72959;BME280;60008;50.826;6.896;2023-10-09T04:11:37;101408.81;;;14.73;100.00
72959;BME280;60008;50.826;6.896;2023-10-09T04:14:23;101411.34;;;14.75;100.00
72959;BME280;60008;50.826;6.896;2023-10-09T04:17:18;101407.66;;;14.68;100.00
72959;BME280;60008;50.826;6.896;2023-10-09T04:20:10;101400.16;;;14.71;100.00
72959;BME280;60008;50.826;6.896;2023-10-09T04:23:02;101406.16;;;14.73;100.00
72959;BME280;60008;50.826;6.896;2023-10-09T04:25:51;101406.28;;;14.88;100.00
72959;BME280;60008;50.826;6.896;2023-10-09T04:28:39;101391.19;;;15.03;100.00
72959;BME280;60008;50.826;6.896;2023-10-09T04:31:28;101392.66;;;15.22;100.00
72959;BME280;60008;50.826;6.896;2023-10-09T04:34:18;101386.84;;;15.49;100.00
72959;BME280;60008;50.826;6.896;2023-10-09T04:37:07;101386.91;;;15.86;100.00
72959;BME280;60008;50.826;6.896;2023-10-09T04:40:12;101379.09;;;16.22;100.00
72959;BME280;60008;50.826;6.896;2023-10-09T04:42:59;101375.78;;;16.35;100.00
72959;BME280;60008;50.826;6.896;2023-10-09T04:45:44;101365.53;;;16.38;100.00
72959;BME280;60008;50.826;6.896;2023-10-09T04:48:49;101366.28;;;16.47;100.00
72959;BME280;60008;50.826;6.896;2023-10-09T04:51:37;101362.22;;;16.51;100.00
72959;BME280;60008;50.826;6.896;2023-10-09T04:54:40;101356.97;;;16.43;100.00
72959;BME280;60008;50.826;6.896;2023-10-09T04:57:47;101358.50;;;16.60;100.00
72959;BME280;60008;50.826;6.896;2023-10-09T05:00:46;101363.06;;;16.66;100.00
72959;BME280;60008;50.826;6.896;2023-10-09T05:03:31;101350.38;;;16.68;100.00
72959;BME280;60008;50.826;6.896;2023-10-09T05:06:28;101351.38;;;16.67;100.00
72959;BME280;60008;50.826;6.896;2023-10-09T05:09:43;101360.13;;;16.76;100.00
72959;BME280;60008;50.826;6.896;2023-10-09T05:12:41;101368.53;;;16.73;100.00
72959;BME280;60008;50.826;6.896;2023-10-09T05:15:31;101365.56;;;16.53;100.00
72959;BME280;60008;50.826;6.896;2023-10-09T05:18:19;101364.84;;;16.59;100.00
72959;BME280;60008;50.826;6.896;2023-10-09T05:21:12;101355.78;;;16.75;100.00
72959;BME280;60008;50.826;6.896;2023-10-09T05:23:58;101359.78;;;16.79;100.00
72959;BME280;60008;50.826;6.896;2023-10-09T05:27:00;101364.75;;;16.82;100.00
72959;BME280;60008;50.826;6.896;2023-10-09T05:30:04;101374.63;;;16.81;100.00
72959;BME280;60008;50.826;6.896;2023-10-09T05:33:08;101366.22;;;16.70;100.00
72959;BME280;60008;50.826;6.896;2023-10-09T05:36:12;101353.88;;;16.69;100.00
72959;BME280;60008;50.826;6.896;2023-10-09T05:39:09;101344.63;;;16.71;100.00
72959;BME280;60008;50.826;6.896;2023-10-09T05:42:27;101349.53;;;16.67;100.00
72959;BME280;60008;50.826;6.896;2023-10-09T05:45:22;101352.84;;;16.70;100.00
72959;BME280;60008;50.826;6.896;2023-10-09T05:48:26;101354.78;;;16.90;100.00
72959;BME280;60008;50.826;6.896;2023-10-09T05:51:24;101356.03;;;17.09;100.00
72959;BME280;60008;50.826;6.896;2023-10-09T05:54:28;101355.22;;;17.08;100.00
72959;BME280;60008;50.826;6.896;2023-10-09T05:57:32;101360.94;;;17.05;100.00
72959;BME280;60008;50.826;6.896;2023-10-09T06:00:38;101353.38;;;17.09;100.00
72959;BME280;60008;50.826;6.896;2023-10-09T06:03:41;101357.69;;;17.10;100.00
72959;BME280;60008;50.826;6.896;2023-10-09T06:07:02;101358.25;;;17.20;100.00
72959;BME280;60008;50.826;6.896;2023-10-09T06:09:59;101361.09;;;17.18;100.00
72959;BME280;60008;50.826;6.896;2023-10-09T06:12:55;101352.69;;;17.07;100.00
72959;BME280;60008;50.826;6.896;2023-10-09T06:15:49;101347.84;;;16.96;100.00
72959;BME280;60008;50.826;6.896;2023-10-09T06:18:54;101350.97;;;16.99;100.00
72959;BME280;60008;50.826;6.896;2023-10-09T06:21:57;101356.88;;;16.95;100.00
72959;BME280;60008;50.826;6.896;2023-10-09T06:24:48;101343.59;;;16.87;100.00
72959;BME280;60008;50.826;6.896;2023-10-09T06:27:41;101361.78;;;16.91;100.00
72959;BME280;60008;50.826;6.896;2023-10-09T06:30:34;101368.06;;;16.98;100.00
72959;BME280;60008;50.826;6.896;2023-10-09T06:33:20;101393.72;;;17.07;100.00
72959;BME280;60008;50.826;6.896;2023-10-09T06:36:14;101389.09;;;17.01;100.00
72959;BME280;60008;50.826;6.896;2023-10-09T06:39:03;101383.31;;;16.98;100.00
72959;BME280;60008;50.826;6.896;2023-10-09T06:42:06;101392.44;;;16.89;100.00
72959;BME280;60008;50.826;6.896;2023-10-09T06:45:15;101399.19;;;16.70;100.00
72959;BME280;60008;50.826;6.896;2023-10-09T06:48:04;101394.84;;;16.69;100.00
72959;BME280;60008;50.826;6.896;2023-10-09T06:51:15;101395.31;;;16.73;100.00
72959;BME280;60008;50.826;6.896;2023-10-09T06:54:13;101407.13;;;16.78;100.00
72959;BME280;60008;50.826;6.896;2023-10-09T06:57:01;101409.16;;;16.76;100.00
72959;BME280;60008;50.826;6.896;2023-10-09T06:59:57;101413.94;;;16.81;100.00
72959;BME280;60008;50.826;6.896;2023-10-09T07:03:03;101422.19;;;16.79;100.00
72959;BME280;60008;50.826;6.896;2023-10-09T07:06:06;101426.25;;;16.90;100.00
72959;BME280;60008;50.826;6.896;2023-10-09T07:09:08;101439.53;;;16.98;100.00
72959;BME280;60008;50.826;6.896;2023-10-09T07:11:54;101446.75;;;16.97;100.00
72959;BME280;60008;50.826;6.896;2023-10-09T07:14:39;101456.06;;;17.01;100.00
72959;BME280;60008;50.826;6.896;2023-10-09T07:17:24;101456.91;;;16.87;100.00
72959;BME280;60008;50.826;6.896;2023-10-09T07:20:19;101455.88;;;16.88;100.00
72959;BME280;60008;50.826;6.896;2023-10-09T07:23:22;101461.97;;;16.97;100.00
72959;BME280;60008;50.826;6.896;2023-10-09T07:26:08;101470.13;;;17.03;100.00
72959;BME280;60008;50.826;6.896;2023-10-09T07:29:04;101460.78;;;16.99;100.00
72959;BME280;60008;50.826;6.896;2023-10-09T07:32:06;101465.31;;;17.28;100.00
72959;BME280;60008;50.826;6.896;2023-10-09T07:34:57;101463.88;;;17.32;100.00
72959;BME280;60008;50.826;6.896;2023-10-09T07:37:44;101463.34;;;17.22;100.00
72959;BME280;60008;50.826;6.896;2023-10-09T07:40:36;101461.09;;;17.40;100.00
72959;BME280;60008;50.826;6.896;2023-10-09T07:43:40;101461.28;;;17.53;100.00
72959;BME280;60008;50.826;6.896;2023-10-09T07:46:35;101458.25;;;17.56;100.00
72959;BME280;60008;50.826;6.896;2023-10-09T07:49:58;101450.09;;;17.64;100.00
72959;BME280;60008;50.826;6.896;2023-10-09T07:52:47;101459.34;;;17.62;100.00
72959;BME280;60008;50.826;6.896;2023-10-09T07:55:39;101453.81;;;17.63;100.00
72959;BME280;60008;50.826;6.896;2023-10-09T07:58:25;101466.06;;;17.72;100.00
72959;BME280;60008;50.826;6.896;2023-10-09T08:01:10;101465.63;;;17.69;100.00
72959;BME280;60008;50.826;6.896;2023-10-09T08:04:07;101464.03;;;17.74;100.00
72959;BME280;60008;50.826;6.896;2023-10-09T08:07:00;101468.38;;;17.97;100.00
72959;BME280;60008;50.826;6.896;2023-10-09T08:10:10;101462.75;;;18.13;100.00
72959;BME280;60008;50.826;6.896;2023-10-09T08:12:59;101467.88;;;18.29;100.00
72959;BME280;60008;50.826;6.896;2023-10-09T08:15:47;101464.56;;;18.48;100.00
72959;BME280;60008;50.826;6.896;2023-10-09T08:18:37;101464.03;;;18.38;100.00
72959;BME280;60008;50.826;6.896;2023-10-09T08:21:30;101476.75;;;18.29;100.00
72959;BME280;60008;50.826;6.896;2023-10-09T08:24:47;101474.06;;;18.29;100.00
72959;BME280;60008;50.826;6.896;2023-10-09T08:27:42;101468.91;;;18.49;100.00
72959;BME280;60008;50.826;6.896;2023-10-09T08:30:39;101469.84;;;18.41;100.00
72959;BME280;60008;50.826;6.896;2023-10-09T08:33:47;101465.84;;;18.31;100.00
72959;BME280;60008;50.826;6.896;2023-10-09T08:36:45;101459.03;;;18.35;100.00
72959;BME280;60008;50.826;6.896;2023-10-09T08:39:36;101465.50;;;18.40;100.00
72959;BME280;60008;50.826;6.896;2023-10-09T08:42:23;101466.91;;;18.58;100.00
72959;BME280;60008;50.826;6.896;2023-10-09T08:45:11;101453.69;;;18.56;100.00
72959;BME280;60008;50.826;6.896;2023-10-09T08:47:59;101444.16;;;18.54;100.00
72959;BME280;60008;50.826;6.896;2023-10-09T08:50:49;101451.97;;;18.49;100.00
72959;BME280;60008;50.826;6.896;2023-10-09T08:53:34;101431.66;;;18.46;100.00
72959;BME280;60008;50.826;6.896;2023-10-09T08:56:21;101420.53;;;18.21;100.00
72959;BME280;60008;50.826;6.896;2023-10-09T08:59:09;101454.25;;;18.52;100.00
72959;BME280;60008;50.826;6.896;2023-10-09T09:01:55;101463.31;;;18.72;100.00
72959;BME280;60008;50.826;6.896;2023-10-09T09:04:45;101470.22;;;18.87;100.00
72959;BME280;60008;50.826;6.896;2023-10-09T09:07:31;101481.19;;;18.86;100.00
72959;BME280;60008;50.826;6.896;2023-10-09T09:10:30;101492.84;;;18.99;100.00
72959;BME280;60008;50.826;6.896;2023-10-09T09:13:20;101492.09;;;19.19;100.00
72959;BME280;60008;50.826;6.896;2023-10-09T09:16:13;101488.09;;;19.01;100.00
72959;BME280;60008;50.826;6.896;2023-10-09T09:18:59;101467.16;;;18.90;100.00
72959;BME280;60008;50.826;6.896;2023-10-09T09:21:57;101452.53;;;18.99;100.00
72959;BME280;60008;50.826;6.896;2023-10-09T09:24:57;101414.19;;;18.84;100.00
72959;BME280;60008;50.826;6.896;2023-10-09T09:27:48;101389.25;;;18.97;100.00
72959;BME280;60008;50.826;6.896;2023-10-09T09:30:50;101406.13;;;19.25;100.00
72959;BME280;60008;50.826;6.896;2023-10-09T09:33:36;101407.97;;;19.72;100.00
72959;BME280;60008;50.826;6.896;2023-10-09T09:36:27;101423.13;;;20.12;100.00
72959;BME280;60008;50.826;6.896;2023-10-09T09:39:15;101432.03;;;20.06;100.00
72959;BME280;60008;50.826;6.896;2023-10-09T09:42:04;101415.38;;;19.57;100.00
72959;BME280;60008;50.826;6.896;2023-10-09T09:44:52;101411.69;;;19.71;100.00
72959;BME280;60008;50.826;6.896;2023-10-09T09:47:37;101403.88;;;20.22;100.00
72959;BME280;60008;50.826;6.896;2023-10-09T09:50:23;101398.09;;;20.18;100.00
72959;BME280;60008;50.826;6.896;2023-10-09T09:53:15;101381.53;;;20.35;100.00
72959;BME280;60008;50.826;6.896;2023-10-09T09:56:03;101377.38;;;20.39;100.00
72959;BME280;60008;50.826;6.896;2023-10-09T09:58:50;101363.94;;;20.26;100.00
72959;BME280;60008;50.826;6.896;2023-10-09T10:01:39;101364.34;;;20.16;100.00
72959;BME280;60008;50.826;6.896;2023-10-09T10:04:28;101355.00;;;21.22;100.00
72959;BME280;60008;50.826;6.896;2023-10-09T10:07:16;101364.25;;;21.70;100.00
72959;BME280;60008;50.826;6.896;2023-10-09T10:10:02;101355.81;;;21.91;100.00
72959;BME280;60008;50.826;6.896;2023-10-09T10:12:53;101369.56;;;21.52;100.00
72959;BME280;60008;50.826;6.896;2023-10-09T10:16:00;101370.22;;;21.72;100.00
72959;BME280;60008;50.826;6.896;2023-10-09T10:19:00;101355.97;;;22.39;100.00
72959;BME280;60008;50.826;6.896;2023-10-09T10:21:52;101354.94;;;22.22;100.00
72959;BME280;60008;50.826;6.896;2023-10-09T10:24:41;101347.44;;;22.85;100.00
72959;BME280;60008;50.826;6.896;2023-10-09T10:27:42;101343.34;;;21.90;100.00
72959;BME280;60008;50.826;6.896;2023-10-09T10:30:45;101331.13;;;22.56;100.00
72959;BME280;60008;50.826;6.896;2023-10-09T10:36:41;101329.31;;;22.49;100.00
72959;BME280;60008;50.826;6.896;2023-10-09T10:39:29;101336.38;;;22.26;100.00
72959;BME280;60008;50.826;6.896;2023-10-09T10:42:29;101340.94;;;22.50;100.00
72959;BME280;60008;50.826;6.896;2023-10-09T10:45:20;101344.72;;;22.67;100.00
72959;BME280;60008;50.826;6.896;2023-10-09T10:48:20;101346.59;;;22.24;100.00
72959;BME280;60008;50.826;6.896;2023-10-09T10:51:22;101345.09;;;22.28;100.00
72959;BME280;60008;50.826;6.896;2023-10-09T10:54:08;101341.31;;;22.11;100.00
72959;BME280;60008;50.826;6.896;2023-10-09T10:57:19;101354.25;;;22.02;100.00
72959;BME280;60008;50.826;6.896;2023-10-09T11:00:13;101356.59;;;21.99;100.00
72959;BME280;60008;50.826;6.896;2023-10-09T11:03:20;101351.50;;;22.33;100.00
72959;BME280;60008;50.826;6.896;2023-10-09T11:06:24;101353.09;;;22.59;100.00
72959;BME280;60008;50.826;6.896;2023-10-09T11:09:09;101354.13;;;22.40;100.00
72959;BME280;60008;50.826;6.896;2023-10-09T11:12:06;101360.50;;;22.45;100.00
72959;BME280;60008;50.826;6.896;2023-10-09T11:15:07;101363.44;;;22.44;100.00
72959;BME280;60008;50.826;6.896;2023-10-09T11:18:08;101362.91;;;22.53;100.00
72959;BME280;60008;50.826;6.896;2023-10-09T11:20:58;101361.00;;;22.79;100.00
72959;BME280;60008;50.826;6.896;2023-10-09T11:24:04;101361.69;;;22.92;100.00
72959;BME280;60008;50.826;6.896;2023-10-09T11:27:07;101374.97;;;22.76;100.00
72959;BME280;60008;50.826;6.896;2023-10-09T11:30:01;101369.59;;;22.51;100.00
72959;BME280;60008;50.826;6.896;2023-10-09T11:32:50;101373.03;;;22.40;100.00
72959;BME280;60008;50.826;6.896;2023-10-09T11:35:38;101359.75;;;22.57;100.00
72959;BME280;60008;50.826;6.896;2023-10-09T11:38:23;101360.00;;;22.55;100.00
72959;BME280;60008;50.826;6.896;2023-10-09T11:41:15;101356.88;;;22.76;100.00
72959;BME280;60008;50.826;6.896;2023-10-09T11:44:04;101353.09;;;22.59;100.00
72959;BME280;60008;50.826;6.896;2023-10-09T11:47:02;101364.69;;;22.84;100.00
72959;BME280;60008;50.826;6.896;2023-10-09T11:50:13;101361.59;;;22.81;100.00
72959;BME280;60008;50.826;6.896;2023-10-09T11:52:59;101351.03;;;22.79;100.00
72959;BME280;60008;50.826;6.896;2023-10-09T11:56:04;101357.41;;;22.85;100.00
72959;BME280;60008;50.826;6.896;2023-10-09T11:58:49;101354.97;;;23.13;100.00
72959;BME280;60008;50.826;6.896;2023-10-09T12:01:35;101351.91;;;22.91;100.00
72959;BME280;60008;50.826;6.896;2023-10-09T12:04:21;101352.34;;;22.52;100.00
72959;BME280;60008;50.826;6.896;2023-10-09T12:07:15;101359.06;;;22.43;100.00
72959;BME280;60008;50.826;6.896;2023-10-09T12:10:00;101356.47;;;22.54;100.00
72959;BME280;60008;50.826;6.896;2023-10-09T12:12:46;101353.22;;;22.46;100.00
72959;BME280;60008;50.826;6.896;2023-10-09T12:15:32;101341.59;;;22.45;100.00
72959;BME280;60008;50.826;6.896;2023-10-09T12:18:23;101341.44;;;22.59;100.00
72959;BME280;60008;50.826;6.896;2023-10-09T12:21:09;101346.50;;;22.55;100.00
72959;BME280;60008;50.826;6.896;2023-10-09T12:24:00;101344.69;;;22.49;100.00
72959;BME280;60008;50.826;6.896;2023-10-09T12:26:47;101346.63;;;22.42;100.00
72959;BME280;60008;50.826;6.896;2023-10-09T12:29:32;101352.41;;;22.45;100.00
72959;BME280;60008;50.826;6.896;2023-10-09T12:32:18;101346.16;;;22.45;100.00
72959;BME280;60008;50.826;6.896;2023-10-09T12:35:06;101353.78;;;22.54;100.00
72959;BME280;60008;50.826;6.896;2023-10-09T12:38:02;101363.56;;;22.31;100.00
72959;BME280;60008;50.826;6.896;2023-10-09T12:40:48;101359.22;;;22.48;100.00
72959;BME280;60008;50.826;6.896;2023-10-09T12:43:36;101358.69;;;22.39;100.00
72959;BME280;60008;50.826;6.896;2023-10-09T12:46:24;101354.22;;;22.51;100.00
72959;BME280;60008;50.826;6.896;2023-10-09T12:49:11;101339.75;;;22.21;100.00
72959;BME280;60008;50.826;6.896;2023-10-09T12:51:56;101337.31;;;22.38;100.00
72959;BME280;60008;50.826;6.896;2023-10-09T12:54:42;101336.88;;;22.41;100.00
72959;BME280;60008;50.826;6.896;2023-10-09T12:57:28;101333.47;;;22.27;100.00
72959;BME280;60008;50.826;6.896;2023-10-09T13:00:14;101340.53;;;22.28;100.00
72959;BME280;60008;50.826;6.896;2023-10-09T13:03:11;101341.53;;;22.34;100.00
72959;BME280;60008;50.826;6.896;2023-10-09T13:06:02;101355.78;;;22.41;100.00
72959;BME280;60008;50.826;6.896;2023-10-09T13:08:52;101347.13;;;22.32;100.00
72959;BME280;60008;50.826;6.896;2023-10-09T13:11:37;101346.09;;;22.33;100.00
72959;BME280;60008;50.826;6.896;2023-10-09T13:14:25;101342.53;;;22.15;100.00
72959;BME280;60008;50.826;6.896;2023-10-09T13:17:10;101347.38;;;22.31;100.00
72959;BME280;60008;50.826;6.896;2023-10-09T13:19:56;101345.25;;;22.33;100.00
72959;BME280;60008;50.826;6.896;2023-10-09T13:22:44;101352.81;;;22.00;100.00
72959;BME280;60008;50.826;6.896;2023-10-09T13:25:33;101349.94;;;22.01;100.00
72959;BME280;60008;50.826;6.896;2023-10-09T13:28:24;101357.13;;;22.07;100.00
72959;BME280;60008;50.826;6.896;2023-10-09T13:31:09;101362.78;;;21.99;100.00
72959;BME280;60008;50.826;6.896;2023-10-09T13:33:56;101356.63;;;22.17;100.00
72959;BME280;60008;50.826;6.896;2023-10-09T13:36:42;101360.66;;;22.08;100.00
72959;BME280;60008;50.826;6.896;2023-10-09T13:39:38;101357.50;;;22.11;100.00
72959;BME280;60008;50.826;6.896;2023-10-09T13:42:25;101358.34;;;22.11;100.00
72959;BME280;60008;50.826;6.896;2023-10-09T13:45:11;101350.34;;;22.23;100.00
72959;BME280;60008;50.826;6.896;2023-10-09T13:48:00;101347.66;;;22.23;100.00
72959;BME280;60008;50.826;6.896;2023-10-09T13:50:51;101348.56;;;22.10;100.00
72959;BME280;60008;50.826;6.896;2023-10-09T13:53:43;101363.66;;;22.18;100.00
72959;BME280;60008;50.826;6.896;2023-10-09T13:56:32;101369.38;;;21.78;100.00
72959;BME280;60008;50.826;6.896;2023-10-09T13:59:23;101359.56;;;21.84;100.00
72959;BME280;60008;50.826;6.896;2023-10-09T14:02:11;101357.81;;;21.71;100.00
72959;BME280;60008;50.826;6.896;2023-10-09T14:05:03;101352.44;;;21.65;100.00
72959;BME280;60008;50.826;6.896;2023-10-09T14:07:48;101356.19;;;21.64;100.00
72959;BME280;60008;50.826;6.896;2023-10-09T14:10:37;101357.34;;;21.74;100.00
72959;BME280;60008;50.826;6.896;2023-10-09T14:13:23;101359.50;;;21.66;100.00
72959;BME280;60008;50.826;6.896;2023-10-09T14:16:13;101364.09;;;21.59;100.00
72959;BME280;60008;50.826;6.896;2023-10-09T14:19:09;101364.16;;;21.52;100.00
72959;BME280;60008;50.826;6.896;2023-10-09T14:21:58;101349.28;;;21.36;100.00
72959;BME280;60008;50.826;6.896;2023-10-09T14:24:44;101346.97;;;21.47;100.00
72959;BME280;60008;50.826;6.896;2023-10-09T14:27:29;101342.22;;;21.42;100.00
72959;BME280;60008;50.826;6.896;2023-10-09T14:30:15;101355.50;;;21.44;100.00
72959;BME280;60008;50.826;6.896;2023-10-09T14:33:09;101354.34;;;21.26;100.00
72959;BME280;60008;50.826;6.896;2023-10-09T14:35:57;101358.28;;;21.24;100.00
72959;BME280;60008;50.826;6.896;2023-10-09T14:38:43;101357.22;;;21.31;100.00
72959;BME280;60008;50.826;6.896;2023-10-09T14:41:28;101363.00;;;21.35;100.00
72959;BME280;60008;50.826;6.896;2023-10-09T14:44:18;101359.53;;;21.21;100.00
72959;BME280;60008;50.826;6.896;2023-10-09T14:47:04;101362.50;;;21.13;100.00
72959;BME280;60008;50.826;6.896;2023-10-09T14:49:50;101372.03;;;21.09;100.00
72959;BME280;60008;50.826;6.896;2023-10-09T14:52:39;101368.94;;;20.93;100.00